Time;durP1;ratioP1;P1;durP2;ratioP2;P2;SDS_P1;SDS_P2;PMS_P1;PMS_P2;Temp;Humidity;BMP_temperature;BMP_pressure;BME280_temperature;BME280_humidity;BME280_pressure;Samples;Min_cycle;Max_cycle;Signal;HPM_P1;HPM_P2
2021/10/16 00:00:07;;;;;;;1.83;1.20;;;;;;;7.01;100.00;97263.78;6273603;22;20053;-82
2021/10/16 00:02:32;;;;;;;2.03;1.27;;;;;;;6.88;100.00;97241.47;6247368;22;20007;-82
2021/10/16 00:04:58;;;;;;;1.92;1.65;;;;;;;6.86;100.00;97227.38;6272930;22;20056;-82
2021/10/16 00:07:23;;;;;;;3.70;2.03;;;;;;;7.04;100.00;97263.63;6247520;22;20041;-82
2021/10/16 00:09:49;;;;;;;2.72;1.92;;;;;;;6.86;100.00;97224.72;6247575;22;20007;-82
2021/10/16 00:12:14;;;;;;;0.95;0.80;;;;;;;6.92;100.00;97242.19;6272940;22;20011;-82
2021/10/16 00:14:40;;;;;;;0.77;0.77;;;;;;;6.53;100.00;97173.34;6273093;22;20004;-82
2021/10/16 00:17:06;;;;;;;1.30;1.20;;;;;;;6.93;100.00;97234.09;6247512;22;20015;-82
2021/10/16 00:19:31;;;;;;;2.38;1.20;;;;;;;6.96;100.00;97235.75;6247896;22;20015;-82
2021/10/16 00:21:57;;;;;;;0.57;0.57;;;;;;;6.96;100.00;97233.06;6275049;22;20478;-81
2021/10/16 00:24:23;;;;;;;0.73;0.60;;;;;;;6.89;100.00;97221.06;6249653;22;20014;-81
2021/10/16 00:26:48;;;;;;;1.17;1.08;;;;;;;6.88;100.00;97214.88;6250066;22;20358;-82
2021/10/16 00:29:14;;;;;;;1.40;1.25;;;;;;;7.11;100.00;97255.38;6275150;22;20004;-82
2021/10/16 00:31:39;;;;;;;1.10;1.08;;;;;;;6.97;100.00;97230.34;6250071;22;20063;-82
2021/10/16 00:34:05;;;;;;;0.95;0.95;;;;;;;6.89;100.00;97194.47;6249519;22;20003;-82
2021/10/16 00:36:31;;;;;;;0.43;0.43;;;;;;;7.14;100.00;97236.59;6249594;22;20422;-81
2021/10/16 00:38:56;;;;;;;1.63;1.20;;;;;;;6.90;100.00;97197.03;6275353;22;20061;-82
2021/10/16 00:41:22;;;;;;;0.45;0.45;;;;;;;7.15;100.00;97243.59;6249161;22;20462;-82
2021/10/16 00:43:47;;;;;;;1.52;1.42;;;;;;;6.69;100.00;97158.31;6249270;22;20080;-82
2021/10/16 00:46:13;;;;;;;5.65;1.10;;;;;;;7.16;100.00;97226.72;6249360;22;20011;-82
2021/10/16 00:48:38;;;;;;;0.77;0.70;;;;;;;7.06;100.00;97213.03;6249530;22;20012;-82
2021/10/16 00:51:04;;;;;;;1.45;1.17;;;;;;;7.06;100.00;97219.22;6275005;22;20026;-82
2021/10/16 00:53:30;;;;;;;2.00;1.27;;;;;;;7.00;100.00;97208.06;6274970;22;20006;-82
2021/10/16 00:55:55;;;;;;;4.88;1.40;;;;;;;7.01;100.00;97207.97;6275116;22;20039;-82
2021/10/16 00:58:23;;;;;;;1.27;1.17;;;;;;;6.98;100.00;97207.28;6276371;22;20401;-82
2021/10/16 01:00:48;;;;;;;2.00;1.88;;;;;;;7.04;100.00;97215.78;6274817;22;20057;-82
2021/10/16 01:03:14;;;;;;;4.53;2.20;;;;;;;7.09;100.00;97215.53;6249511;22;20004;-82
2021/10/16 01:05:39;;;;;;;1.77;1.67;;;;;;;7.10;100.00;97214.63;6248772;22;20423;-82
2021/10/16 01:08:10;;;;;;;3.70;2.72;;;;;;;6.81;100.00;97162.13;6249620;22;20474;-82
2021/10/16 01:10:36;;;;;;;9.25;2.83;;;;;;;7.18;100.00;97219.50;6275477;22;20010;-82
2021/10/16 01:13:01;;;;;;;5.70;3.78;;;;;;;7.11;100.00;97207.50;6249165;22;20090;-82
2021/10/16 01:15:27;;;;;;;12.85;2.78;;;;;;;7.12;100.00;97217.16;6248907;22;20061;-82
2021/10/16 01:17:53;;;;;;;1.70;1.60;;;;;;;7.06;100.00;97203.28;6249384;22;20007;-83
2021/10/16 01:20:23;;;;;;;2.67;2.28;;;;;;;7.12;100.00;97215.38;6274902;22;20031;-82
2021/10/16 01:22:49;;;;;;;1.83;1.73;;;;;;;7.14;100.00;97213.47;6274659;22;19999;-82
2021/10/16 01:25:18;;;;;;;1.90;1.77;;;;;;;6.90;100.00;97175.78;6249144;22;20026;-82
2021/10/16 01:27:43;;;;;;;1.70;1.58;;;;;;;6.85;100.00;97164.53;6274362;22;20386;-82
2021/10/16 01:30:12;;;;;;;7.82;3.47;;;;;;;6.83;100.00;97169.06;6248761;22;20003;-82
2021/10/16 01:32:39;;;;;;;7.18;3.25;;;;;;;6.87;100.00;97180.41;6248638;22;20039;-82
2021/10/16 01:35:07;;;;;;;2.63;2.08;;;;;;;7.08;100.00;97213.81;6249321;22;20415;-82
2021/10/16 01:37:33;;;;;;;8.35;4.10;;;;;;;6.90;100.00;97197.03;6275178;22;20450;-82
2021/10/16 01:39:59;;;;;;;2.25;2.00;;;;;;;7.06;100.00;97221.88;6248884;22;19995;-82
2021/10/16 01:42:24;;;;;;;3.03;1.85;;;;;;;6.96;100.00;97201.19;6249091;22;20008;-81
2021/10/16 01:44:50;;;;;;;4.38;3.38;;;;;;;6.94;100.00;97193.28;6248667;22;20121;-83
2021/10/16 01:47:15;;;;;;;2.28;1.92;;;;;;;6.99;100.00;97193.03;6248586;22;20362;-81
2021/10/16 01:49:42;;;;;;;2.63;2.13;;;;;;;6.70;100.00;97151.22;6248042;22;20351;-81
2021/10/16 01:52:08;;;;;;;8.52;4.28;;;;;;;6.93;100.00;97185.38;6248298;22;20007;-75
2021/10/16 01:54:33;;;;;;;6.78;2.97;;;;;;;6.93;100.00;97186.25;6274825;22;20432;-82
2021/10/16 01:56:59;;;;;;;5.63;2.25;;;;;;;7.06;100.00;97202.41;6253665;22;20377;-82
2021/10/16 01:59:26;;;;;;;1.77;1.63;;;;;;;7.19;100.00;97219.44;6253603;22;20443;-83
2021/10/16 02:01:53;;;;;;;2.45;2.25;;;;;;;7.16;100.00;97210.75;6253301;22;20018;-82
2021/10/16 02:04:19;;;;;;;3.22;2.45;;;;;;;7.18;100.00;97215.03;6279179;22;20029;-82
2021/10/16 02:06:45;;;;;;;1.98;1.75;;;;;;;7.07;100.00;97199.66;6253022;22;20007;-82
2021/10/16 02:09:11;;;;;;;3.55;1.10;;;;;;;7.13;100.00;97214.44;6253343;22;20090;-82
2021/10/16 02:11:36;;;;;;;2.70;2.47;;;;;;;6.96;100.00;97190.53;6278811;22;20038;-82
2021/10/16 02:14:03;;;;;;;1.55;1.45;;;;;;;7.18;100.00;97214.19;6279627;22;20007;-82
2021/10/16 02:16:29;;;;;;;2.65;1.90;;;;;;;7.16;100.00;97222.25;6279314;22;20003;-82
2021/10/16 02:18:55;;;;;;;1.55;1.30;;;;;;;7.16;100.00;97229.38;6253226;22;20010;-82
2021/10/16 02:21:22;;;;;;;5.20;1.75;;;;;;;7.04;100.00;97196.31;6253613;22;20005;-82
2021/10/16 02:23:47;;;;;;;6.00;2.30;;;;;;;6.99;100.00;97191.25;6253653;22;20447;-82
2021/10/16 02:26:13;;;;;;;2.28;2.08;;;;;;;7.06;100.00;97199.75;6253723;22;20030;-82
2021/10/16 02:28:38;;;;;;;4.50;2.95;;;;;;;7.17;100.00;97215.16;6253440;22;20003;-82
2021/10/16 02:31:04;;;;;;;4.93;1.60;;;;;;;6.97;100.00;97187.81;6253749;22;20030;-82
2021/10/16 02:33:30;;;;;;;1.92;1.02;;;;;;;6.93;100.00;97178.28;6279522;22;20010;-82
2021/10/16 02:35:55;;;;;;;2.28;1.48;;;;;;;7.02;100.00;97190.22;6253335;22;20003;-82
2021/10/16 02:38:21;;;;;;;2.17;1.98;;;;;;;6.98;100.00;97189.50;6279208;22;20007;-82
2021/10/16 02:40:46;;;;;;;6.57;2.22;;;;;;;7.13;100.00;97208.25;6253088;22;20010;-82
2021/10/16 02:43:12;;;;;;;6.53;2.00;;;;;;;6.86;100.00;97163.59;6252957;22;20003;-82
2021/10/16 02:45:38;;;;;;;4.13;2.10;;;;;;;6.85;100.00;97156.56;6253123;22;20003;-82
2021/10/16 02:48:04;;;;;;;6.85;2.60;;;;;;;7.06;100.00;97189.97;6253164;22;20003;-82
2021/10/16 02:50:29;;;;;;;4.97;1.77;;;;;;;7.20;100.00;97201.69;6253580;22;20008;-82
2021/10/16 02:52:55;;;;;;;2.67;1.48;;;;;;;7.13;100.00;97181.66;6253526;22;20331;-82
2021/10/16 02:55:20;;;;;;;2.50;1.75;;;;;;;7.05;100.00;97185.59;6253321;22;20480;-82
2021/10/16 02:57:46;;;;;;;1.17;1.05;;;;;;;6.88;100.00;97159.06;6253292;22;20382;-82
2021/10/16 03:00:12;;;;;;;2.00;1.65;;;;;;;7.08;100.00;97172.13;6253128;22;20439;-82
2021/10/16 03:02:38;;;;;;;5.88;2.20;;;;;;;7.17;100.00;97184.06;6252939;22;20140;-81
2021/10/16 03:05:08;;;;;;;2.22;2.00;;;;;;;7.21;100.00;97180.31;6278820;22;20010;-82
2021/10/16 03:07:33;;;;;;;1.42;1.33;;;;;;;7.27;100.00;97181.75;6252799;22;20014;-82
2021/10/16 03:09:59;;;;;;;4.63;1.77;;;;;;;7.01;100.00;97159.25;6278517;22;20430;-81
2021/10/16 03:12:25;;;;;;;2.05;1.30;;;;;;;7.00;100.00;97161.06;6253146;22;20007;-81
2021/10/16 03:14:51;;;;;;;1.40;1.30;;;;;;;7.21;100.00;97190.06;6253658;22;20431;-81
2021/10/16 03:17:30;;;;;;;5.63;2.92;;;;;;;7.09;100.00;97176.50;6253157;22;20007;-81
2021/10/16 03:19:57;;;;;;;1.25;1.25;;;;;;;7.08;100.00;97174.78;6253152;22;20350;-81
2021/10/16 03:22:23;;;;;;;13.35;2.65;;;;;;;6.96;100.00;97154.19;6254039;22;20442;-81
2021/10/16 03:24:50;;;;;;;2.63;1.85;;;;;;;7.12;100.00;97177.28;6253960;22;20073;-81
2021/10/16 03:27:15;;;;;;;5.28;2.92;;;;;;;7.01;100.00;97167.25;6279242;22;20003;-81
2021/10/16 03:29:41;;;;;;;4.50;3.72;;;;;;;7.19;100.00;97198.16;6253055;22;20018;-82
2021/10/16 03:32:06;;;;;;;3.03;2.70;;;;;;;7.16;100.00;97176.19;6278932;22;20083;-81
2021/10/16 03:34:32;;;;;;;3.97;2.67;;;;;;;7.25;100.00;97192.50;6253525;22;19999;-81
2021/10/16 03:36:57;;;;;;;2.03;1.10;;;;;;;7.15;100.00;97163.81;6252981;22;20011;-81
2021/10/16 03:39:23;;;;;;;1.83;1.73;;;;;;;7.24;100.00;97180.13;6278798;22;20037;-82
2021/10/16 03:41:49;;;;;;;2.72;1.92;;;;;;;7.28;100.00;97180.84;6278843;22;19999;-82
2021/10/16 03:44:14;;;;;;;1.67;1.10;;;;;;;6.96;100.00;97122.28;6253098;22;20045;-82
2021/10/16 03:46:40;;;;;;;3.60;3.05;;;;;;;7.19;100.00;97179.53;6278782;22;20004;-82
2021/10/16 03:49:14;;;;;;;2.38;2.17;;;;;;;7.32;100.00;97193.03;6278849;22;20027;-82
2021/10/16 03:51:39;;;;;;;3.03;1.90;;;;;;;7.26;100.00;97183.56;6253175;22;20007;-82
2021/10/16 03:54:05;;;;;;;2.53;2.25;;;;;;;7.22;100.00;97170.53;6253399;22;20022;-81
2021/10/16 03:56:30;;;;;;;3.90;1.65;;;;;;;7.06;100.00;97155.41;6248762;22;20050;-81
2021/10/16 03:58:56;;;;;;;3.13;1.92;;;;;;;7.25;100.00;97188.97;6250123;22;20066;-81
2021/10/16 04:01:22;;;;;;;2.67;1.92;;;;;;;7.11;100.00;97184.41;6275805;22;20066;-81
2021/10/16 04:03:47;;;;;;;1.25;1.15;;;;;;;7.29;100.00;97191.38;6250250;22;20004;-81
2021/10/16 04:06:14;;;;;;;1.73;1.55;;;;;;;7.22;100.00;97175.84;6275654;22;19999;-81
2021/10/16 04:08:40;;;;;;;1.00;0.85;;;;;;;7.16;100.00;97160.22;6250296;22;20065;-81
2021/10/16 04:11:06;;;;;;;2.40;1.77;;;;;;;7.21;100.00;97174.97;6250145;22;20432;-82
2021/10/16 04:13:31;;;;;;;1.75;1.08;;;;;;;7.06;100.00;97144.78;6249898;22;20003;-81
2021/10/16 04:15:57;;;;;;;2.35;1.88;;;;;;;7.10;100.00;97169.41;6249928;22;20013;-81
2021/10/16 04:18:22;;;;;;;3.63;1.75;;;;;;;7.20;100.00;97189.22;6275805;22;19999;-82
2021/10/16 04:20:48;;;;;;;1.88;1.63;;;;;;;7.08;100.00;97174.78;6249524;22;20000;-82
2021/10/16 04:23:14;;;;;;;1.27;0.90;;;;;;;7.03;100.00;97173.31;6250027;22;20439;-82
2021/10/16 04:25:39;;;;;;;2.17;1.60;;;;;;;7.21;100.00;97190.94;6249865;22;20409;-81
2021/10/16 04:28:05;;;;;;;2.55;1.52;;;;;;;7.23;100.00;97194.38;6249929;22;20007;-82
2021/10/16 04:30:30;;;;;;;1.77;1.40;;;;;;;7.16;100.00;97190.34;6275855;22;20454;-83
2021/10/16 04:32:58;;;;;;;0.77;0.75;;;;;;;7.08;100.00;97169.47;6249547;22;20008;-81
2021/10/16 04:35:24;;;;;;;2.13;1.65;;;;;;;7.11;100.00;97173.75;6276313;22;20082;-81
2021/10/16 04:37:49;;;;;;;1.58;1.38;;;;;;;7.23;100.00;97190.88;6248953;22;20097;-83
2021/10/16 04:40:20;;;;;;;1.17;1.08;;;;;;;7.21;100.00;97190.06;6249642;22;20004;-83
2021/10/16 04:42:48;;;;;;;1.77;1.00;;;;;;;7.05;100.00;97164.31;6250430;22;20077;-80
2021/10/16 04:45:13;;;;;;;1.55;1.27;;;;;;;7.20;100.00;97188.38;6274937;22;20034;-81
2021/10/16 04:47:39;;;;;;;14.85;1.55;;;;;;;7.07;100.00;97178.38;6275355;22;20007;-83
2021/10/16 04:50:06;;;;;;;0.98;0.93;;;;;;;7.26;100.00;97201.34;6248622;22;20507;-73
2021/10/16 04:52:32;;;;;;;0.73;0.73;;;;;;;7.23;100.00;97190.88;6273953;22;20061;-80
2021/10/16 04:54:58;;;;;;;0.47;0.47;;;;;;;7.21;100.00;97179.44;6248899;22;20019;-82
2021/10/16 04:57:23;;;;;;;4.47;1.75;;;;;;;7.30;100.00;97195.75;6275209;22;20007;-81
2021/10/16 04:59:49;;;;;;;0.60;0.60;;;;;;;7.30;100.00;97205.53;6248830;22;20031;-81
2021/10/16 05:02:53;;;;;;;0.98;0.90;;;;;;;7.26;100.00;97196.03;6274775;22;20379;-84
2021/10/16 05:08:41;;;;;;;2.15;1.05;;;;;;;7.19;100.00;97213.25;6225879;22;20018;-81
2021/10/16 05:11:06;;;;;;;1.35;0.70;;;;;;;7.33;100.00;97210.69;6248790;22;20037;-81
2021/10/16 05:13:32;;;;;;;0.60;0.60;;;;;;;7.39;100.00;97227.19;6248116;22;20355;-81
2021/10/16 05:15:58;;;;;;;1.40;1.08;;;;;;;7.37;100.00;97226.41;6248738;22;20004;-82
2021/10/16 05:18:23;;;;;;;1.35;1.17;;;;;;;7.27;100.00;97200.38;6249004;22;20010;-82
2021/10/16 05:20:50;;;;;;;0.68;0.68;;;;;;;7.27;100.00;97205.72;6274161;22;19995;-82
2021/10/16 05:23:16;;;;;;;2.53;2.33;;;;;;;7.47;100.00;97232.97;6274420;22;20004;-82
2021/10/16 05:25:42;;;;;;;0.95;0.95;;;;;;;7.27;100.00;97205.72;6248465;22;20003;-82
2021/10/16 05:28:09;;;;;;;0.40;0.40;;;;;;;7.31;100.00;97202.81;6274051;22;20012;-81
2021/10/16 05:30:36;;;;;;;1.50;1.40;;;;;;;7.36;100.00;97216.72;6273770;22;20014;-82
2021/10/16 05:33:01;;;;;;;1.25;1.10;;;;;;;7.31;100.00;97212.59;6248594;22;20004;-83
2021/10/16 05:35:27;;;;;;;4.20;2.47;;;;;;;7.20;100.00;97199.03;6250678;22;20018;-83
2021/10/16 05:37:52;;;;;;;1.30;1.05;;;;;;;7.42;100.00;97250.97;6249206;22;20018;-83
2021/10/16 05:40:18;;;;;;;5.25;2.75;;;;;;;7.47;100.00;97245.41;6248412;22;20003;-82
2021/10/16 05:42:44;;;;;;;2.20;1.52;;;;;;;7.26;100.00;97225.28;6248718;22;20011;-82
2021/10/16 05:45:09;;;;;;;2.65;2.15;;;;;;;7.25;100.00;97205.81;6248767;22;20007;-82
2021/10/16 05:47:36;;;;;;;4.50;3.50;;;;;;;7.55;100.00;97259.13;6274449;22;20000;-83
2021/10/16 05:50:06;;;;;;;3.38;3.08;;;;;;;7.51;100.00;97226.50;6248993;22;20031;-82
2021/10/16 05:52:31;;;;;;;2.70;2.33;;;;;;;7.42;100.00;97242.13;6274324;22;20029;-82
2021/10/16 05:54:57;;;;;;;5.32;2.85;;;;;;;7.39;100.00;97231.63;6248228;22;20011;-82
2021/10/16 05:57:23;;;;;;;7.03;3.63;;;;;;;7.41;100.00;97229.78;6248451;22;20082;-82
2021/10/16 05:59:48;;;;;;;3.63;2.75;;;;;;;7.51;100.00;97252.25;6248301;22;19999;-84
2021/10/16 06:02:14;;;;;;;3.50;2.38;;;;;;;7.39;100.00;97247.59;6274038;22;19999;-83
2021/10/16 06:04:39;;;;;;;3.28;2.33;;;;;;;7.38;100.00;97232.59;6248128;22;20069;-82
2021/10/16 06:07:05;;;;;;;3.45;2.58;;;;;;;7.52;100.00;97246.88;6247956;22;20062;-83
2021/10/16 06:09:30;;;;;;;5.30;3.20;;;;;;;7.61;100.00;97257.00;6248271;22;20352;-83
2021/10/16 06:11:56;;;;;;;11.95;5.68;;;;;;;7.60;100.00;97249.94;6248201;22;20007;-83
2021/10/16 06:14:22;;;;;;;7.78;4.07;;;;;;;7.73;100.00;97270.56;6248082;22;20038;-84
2021/10/16 06:16:47;;;;;;;11.18;5.60;;;;;;;7.69;100.00;97267.22;6248036;22;20451;-83
2021/10/16 06:19:13;;;;;;;6.38;3.65;;;;;;;7.59;100.00;97239.41;6247309;22;20011;-83
2021/10/16 06:21:39;;;;;;;8.77;3.85;;;;;;;7.54;100.00;97252.09;6273015;22;20003;-83
2021/10/16 06:24:04;;;;;;;10.63;3.75;;;;;;;7.32;100.00;97214.31;6247500;22;20095;-84
2021/10/16 06:26:30;;;;;;;2.10;1.95;;;;;;;7.53;100.00;97253.91;6247561;22;20008;-82
2021/10/16 06:28:55;;;;;;;1.48;1.38;;;;;;;7.48;100.00;97260.41;6247613;22;20432;-82
2021/10/16 06:31:21;;;;;;;3.20;2.03;;;;;;;7.61;100.00;97262.31;6247280;22;20015;-82
2021/10/16 06:33:47;;;;;;;2.17;1.98;;;;;;;7.53;100.00;97261.91;6247274;22;20412;-82
2021/10/16 06:36:12;;;;;;;7.68;1.52;;;;;;;7.55;100.00;97259.13;6272434;22;20014;-82
2021/10/16 06:38:38;;;;;;;2.33;1.73;;;;;;;7.52;100.00;97253.97;6246986;22;20007;-82
2021/10/16 06:41:03;;;;;;;3.40;2.25;;;;;;;7.79;100.00;97295.06;6272347;22;20443;-82
2021/10/16 06:43:29;;;;;;;2.88;2.58;;;;;;;7.74;100.00;97269.63;6273465;22;20518;-82
2021/10/16 06:45:55;;;;;;;3.17;1.88;;;;;;;7.91;100.00;97305.03;6247254;22;20435;-82
2021/10/16 06:48:20;;;;;;;1.92;1.77;;;;;;;7.91;100.00;97283.72;6272869;22;20003;-82
2021/10/16 06:50:46;;;;;;;1.50;1.40;;;;;;;8.01;100.00;97294.72;6247201;22;20004;-82
2021/10/16 06:53:12;;;;;;;2.92;2.45;;;;;;;8.13;100.00;97315.34;6247408;22;20100;-81
2021/10/16 06:55:37;;;;;;;4.80;2.17;;;;;;;8.07;100.00;97295.25;6245012;22;20491;-82
2021/10/16 06:58:03;;;;;;;6.78;1.83;;;;;;;8.04;100.00;97292.75;6246818;22;20019;-83
2021/10/16 07:00:29;;;;;;;1.55;1.48;;;;;;;8.16;100.00;97316.03;6246704;22;20000;-84
2021/10/16 07:02:54;;;;;;;2.63;2.22;;;;;;;8.16;100.00;97317.84;6246697;22;20019;-82
2021/10/16 07:05:20;;;;;;;5.32;1.73;;;;;;;8.22;100.00;97336.16;6246369;22;20018;-83
2021/10/16 07:07:45;;;;;;;2.22;1.75;;;;;;;8.11;100.00;97307.47;6246437;22;20046;-83
2021/10/16 07:10:11;;;;;;;2.00;1.55;;;;;;;7.98;100.00;97284.25;6271653;22;19999;-83
2021/10/16 07:12:37;;;;;;;1.83;1.50;;;;;;;8.27;100.00;97339.44;6272281;22;20008;-84
2021/10/16 07:15:04;;;;;;;1.77;1.27;;;;;;;8.35;100.00;97328.34;6271597;22;20007;-82
2021/10/16 07:17:30;;;;;;;8.15;2.78;;;;;;;8.40;100.00;97318.31;6246560;22;20010;-84
2021/10/16 07:19:55;;;;;;;4.40;2.92;;;;;;;8.56;100.00;97345.78;6246783;22;20004;-83
2021/10/16 07:22:21;;;;;;;6.10;4.47;;;;;;;8.44;100.00;97335.81;6246701;22;20008;-83
2021/10/16 07:24:47;;;;;;;4.57;3.42;;;;;;;8.45;100.00;97326.91;6246529;22;20086;-82
2021/10/16 07:27:13;;;;;;;2.88;2.65;;;;;;;8.44;100.00;97325.16;6246090;22;20043;-83
2021/10/16 07:29:39;;;;;;;5.82;3.58;;;;;;;8.53;100.00;97341.50;6246067;22;20022;-83
2021/10/16 07:32:05;;;;;;;4.75;3.92;;;;;;;8.38;100.00;97331.72;6271723;22;20003;-83
2021/10/16 07:34:31;;;;;;;6.28;3.83;;;;;;;8.54;100.00;97348.56;6271334;22;20011;-82
2021/10/16 07:36:56;;;;;;;5.47;4.10;;;;;;;8.39;100.00;97313.94;6245541;22;20004;-83
2021/10/16 07:39:22;;;;;;;5.13;3.10;;;;;;;8.50;100.00;97354.13;6245801;22;20086;-82
2021/10/16 07:41:47;;;;;;;3.50;2.42;;;;;;;8.45;100.00;97326.91;6245422;22;20058;-82
2021/10/16 07:44:14;;;;;;;5.07;3.67;;;;;;;8.63;100.00;97352.50;6271600;22;20000;-82
2021/10/16 07:46:40;;;;;;;7.80;2.90;;;;;;;8.46;100.00;97325.97;6246385;22;20363;-82
2021/10/16 07:49:06;;;;;;;13.88;3.92;;;;;;;8.55;100.00;97333.44;6246481;22;20319;-82
2021/10/16 07:51:32;;;;;;;3.17;2.72;;;;;;;8.54;100.00;97335.22;6246639;22;20379;-82
2021/10/16 07:53:57;;;;;;;17.10;3.90;;;;;;;8.20;100.00;97284.75;6247059;22;20022;-84
2021/10/16 07:56:23;;;;;;;3.10;2.75;;;;;;;8.73;100.00;97353.69;6246543;22;20015;-82
2021/10/16 07:58:48;;;;;;;4.65;3.55;;;;;;;8.79;100.00;97360.47;6247271;22;20008;-82
2021/10/16 08:01:14;;;;;;;18.70;5.63;;;;;;;8.66;100.00;97334.53;6247082;22;20004;-82
2021/10/16 08:03:40;;;;;;;16.50;6.32;;;;;;;8.66;100.00;97323.00;6108177;22;20034;-82
2021/10/16 08:06:05;;;;;;;19.45;6.18;;;;;;;8.84;100.00;97355.72;6244347;22;20012;-80
2021/10/16 08:08:31;;;;;;;8.85;4.80;;;;;;;8.77;100.00;97360.56;6243243;22;20519;-83
2021/10/16 08:10:59;;;;;;;14.23;7.28;;;;;;;8.81;100.00;97361.25;6244024;22;20042;-82
2021/10/16 08:13:26;;;;;;;9.57;6.78;;;;;;;8.74;100.00;97376.72;6243711;22;20008;-82
2021/10/16 08:15:52;;;;;;;7.28;3.97;;;;;;;8.72;100.00;97367.97;6243949;22;20008;-82
2021/10/16 08:18:18;;;;;;;6.03;3.42;;;;;;;8.73;100.00;97359.03;6243466;22;20031;-81
2021/10/16 08:20:44;;;;;;;3.33;2.60;;;;;;;8.69;100.00;97376.16;6244124;22;20407;-80
2021/10/16 08:23:10;;;;;;;4.00;3.35;;;;;;;8.43;100.00;97366.13;6243748;22;20045;-81
2021/10/16 08:25:36;;;;;;;4.10;2.78;;;;;;;8.54;100.00;97379.69;6243329;22;20012;-81
2021/10/16 08:28:10;;;;;;;4.55;2.60;;;;;;;8.41;100.00;97373.31;6243385;22;20018;-81
2021/10/16 08:30:37;;;;;;;3.00;2.72;;;;;;;8.46;100.00;97381.94;6244171;22;20003;-81
2021/10/16 08:33:03;;;;;;;2.00;1.30;;;;;;;8.61;100.00;97375.72;6243298;22;20479;-81
2021/10/16 08:35:28;;;;;;;3.03;2.25;;;;;;;8.67;100.00;97375.38;6243818;22;20042;-82
2021/10/16 08:37:54;;;;;;;2.53;2.20;;;;;;;8.82;100.00;97379.84;6243369;22;20011;-82
2021/10/16 08:40:20;;;;;;;3.60;2.45;;;;;;;8.78;100.00;97380.94;6243208;22;20000;-81
2021/10/16 08:42:46;;;;;;;2.40;1.88;;;;;;;8.93;100.00;97381.84;6270046;22;20007;-81
2021/10/16 08:45:11;;;;;;;4.07;1.75;;;;;;;8.92;100.00;97349.00;6245190;22;20011;-81
2021/10/16 08:47:38;;;;;;;1.02;0.98;;;;;;;9.06;100.00;97365.06;6245349;22;20196;-81
2021/10/16 08:50:09;;;;;;;6.57;1.45;;;;;;;9.14;100.00;97384.13;6244999;22;20034;-81
2021/10/16 08:52:35;;;;;;;5.45;3.17;;;;;;;9.10;100.00;97385.28;6245153;22;20011;-82
2021/10/16 08:55:01;;;;;;;2.13;1.63;;;;;;;9.15;100.00;97388.53;6271129;22;20011;-80
2021/10/16 08:57:33;;;;;;;1.67;1.15;;;;;;;9.26;100.00;97391.41;6245548;22;20007;-81
2021/10/16 09:00:44;;;;;;;1.65;1.20;;;;;;;9.24;100.00;97381.78;6245591;22;20021;-82
2021/10/16 09:03:29;;;;;;;3.83;2.15;;;;;;;9.24;100.00;97390.66;6270511;22;20019;-81
2021/10/16 09:06:04;;;;;;;1.20;1.13;;;;;;;9.16;100.00;97384.94;6245172;22;20469;-81
2021/10/16 09:08:31;;;;;;;1.90;1.30;;;;;;;9.25;100.00;97387.06;6245639;22;20012;-81
2021/10/16 09:11:12;;;;;;;1.67;1.58;;;;;;;9.44;100.00;97383.28;6270954;22;20012;-82
2021/10/16 09:13:42;;;;;;;1.40;1.08;;;;;;;9.36;100.00;97385.53;6270926;22;20379;-81
2021/10/16 09:16:18;;;;;;;4.07;2.22;;;;;;;9.36;100.00;97377.53;6245204;22;20003;-81
2021/10/16 09:18:55;;;;;;;0.60;0.60;;;;;;;9.38;100.00;97383.66;6273268;22;20006;-82
2021/10/16 09:21:25;;;;;;;1.27;1.08;;;;;;;9.25;100.00;97372.84;6270401;22;20004;-82
2021/10/16 09:24:18;;;;;;;5.15;3.03;;;;;;;9.25;100.00;97384.38;6271145;22;20008;-82
2021/10/16 09:26:47;;;;;;;3.55;2.28;;;;;;;9.30;100.00;97388.56;6244861;22;20007;-82
2021/10/16 09:29:14;;;;;;;6.07;4.35;;;;;;;9.27;100.00;97393.16;6244900;22;20011;-82
2021/10/16 09:31:42;;;;;;;4.93;4.03;;;;;;;9.30;100.00;97397.44;6245257;22;20046;-82
2021/10/16 09:34:09;;;;;;;6.63;4.20;;;;;;;9.37;100.00;97395.25;6270816;22;20351;-83
2021/10/16 09:36:36;;;;;;;8.15;4.43;;;;;;;9.38;100.00;97387.19;6245448;22;20466;-82
2021/10/16 09:39:04;;;;;;;4.00;2.80;;;;;;;9.35;100.00;97390.00;6245352;22;20137;-82
2021/10/16 09:41:33;;;;;;;4.38;3.05;;;;;;;9.39;100.00;97383.53;6244966;22;20023;-82
2021/10/16 09:43:59;;;;;;;3.83;3.45;;;;;;;9.40;100.00;97381.72;6270835;22;20035;-82
2021/10/16 09:46:25;;;;;;;4.18;3.65;;;;;;;9.41;100.00;97388.81;6125508;22;20445;-80
2021/10/16 09:48:55;;;;;;;4.43;3.30;;;;;;;9.53;100.00;97398.75;6270730;22;20034;-81
2021/10/16 09:51:21;;;;;;;3.03;1.98;;;;;;;9.67;100.00;97406.75;6244904;22;20082;-81
2021/10/16 09:54:05;;;;;;;4.03;3.13;;;;;;;9.48;100.00;97393.66;6244708;22;20007;-81
2021/10/16 09:56:32;;;;;;;2.15;1.95;;;;;;;9.54;100.00;97390.63;6244797;22;20003;-79
2021/10/16 09:58:58;;;;;;;4.78;2.60;;;;;;;9.71;100.00;97403.84;6245185;22;20011;-81
2021/10/16 10:01:24;;;;;;;2.53;1.83;;;;;;;9.76;100.00;97400.88;6245080;22;20065;-80
2021/10/16 10:03:50;;;;;;;2.22;1.73;;;;;;;9.77;100.00;97403.47;6245759;22;20019;-80
2021/10/16 10:06:17;;;;;;;5.60;2.20;;;;;;;9.82;100.00;97404.03;6245312;22;20450;-80
2021/10/16 10:08:43;;;;;;;3.17;2.42;;;;;;;9.62;100.00;97406.19;6245135;22;20007;-80
2021/10/16 10:11:10;;;;;;;5.15;1.77;;;;;;;9.70;100.00;97401.25;6244674;22;20095;-81
2021/10/16 10:13:36;;;;;;;3.85;3.13;;;;;;;9.76;100.00;97396.38;6270371;22;20443;-81
2021/10/16 10:16:13;;;;;;;;;;;;;;;;;;;;;
2021/10/16 10:21:23;;;;;;;4.20;3.20;;;;;;;9.85;100.00;97399.44;6271315;22;20064;-81
2021/10/16 10:23:56;;;;;;;5.50;2.95;;;;;;;9.95;100.00;97421.97;6270558;22;20354;-80
2021/10/16 10:26:29;;;;;;;10.02;2.53;;;;;;;10.00;100.00;97410.03;6245437;22;20011;-81
2021/10/16 10:29:00;;;;;;;3.13;2.83;;;;;;;10.13;100.00;97415.50;6245185;22;20040;-80
2021/10/16 10:31:44;;;;;;;4.20;3.57;;;;;;;10.10;100.00;97416.53;6270841;22;20011;-82
2021/10/16 10:34:31;;;;;;;4.63;2.22;;;;;;;10.16;100.00;97416.19;6270739;22;20007;-83
2021/10/16 10:37:06;;;;;;;11.65;4.78;;;;;;;10.17;100.00;97409.03;6271543;22;20031;-84
2021/10/16 10:39:35;;;;;;;2.08;1.67;;;;;;;10.10;100.00;97415.69;6270457;22;20062;-81
2021/10/16 10:42:24;;;;;;;2.78;2.53;;;;;;;9.84;100.00;97424.44;6272402;22;20004;-81
2021/10/16 10:44:57;;;;;;;2.58;1.92;;;;;;;9.88;100.00;97408.13;6255790;22;20015;-79
2021/10/16 11:02:58;;;;;;;5.20;3.47;;;;;;;10.76;100.00;97416.81;4530941;27;16110364;-88
2021/10/16 11:07:49;;;;;;;2.73;2.53;;;;;;;10.43;100.00;97424.28;5086130;28;20054;-89
2021/10/16 11:10:15;;;;;;;4.55;3.22;;;;;;;10.33;100.00;97428.50;5068171;28;20037;-89
2021/10/16 11:12:43;;;;;;;6.50;3.58;;;;;;;10.23;100.00;97422.88;5070248;28;20032;-87
2021/10/16 11:15:11;;;;;;;7.55;3.83;;;;;;;10.28;100.00;97427.94;5067542;28;20090;-83
2021/10/16 11:17:44;;;;;;;7.55;2.53;;;;;;;10.14;100.00;97425.28;5068723;28;20051;-88
2021/10/16 11:20:25;;;;;;;5.97;3.13;;;;;;;10.06;100.00;97406.16;5068375;28;20118;-78
2021/10/16 11:22:55;;;;;;;4.50;2.72;;;;;;;10.26;100.00;97422.69;5064139;28;20040;-77
2021/10/16 11:25:31;;;;;;;5.97;4.28;;;;;;;10.26;100.00;97428.03;5082815;28;20118;-76
2021/10/16 11:28:10;;;;;;;4.35;3.22;;;;;;;10.24;100.00;97431.75;5084809;28;20376;-76
2021/10/16 11:30:47;;;;;;;10.57;3.60;;;;;;;10.20;100.00;97422.22;5064831;28;20020;-84
2021/10/16 11:33:15;;;;;;;13.05;5.10;;;;;;;10.15;100.00;97413.63;5501386;22;20496;-84
2021/10/16 11:36:02;;;;;;;9.23;4.20;;;;;;;10.17;100.00;97420.59;5054646;28;20033;-85
2021/10/16 11:38:32;;;;;;;8.15;6.20;;;;;;;10.18;100.00;97424.97;5031197;28;20037;-81
2021/10/16 11:41:00;;;;;;;8.18;5.93;;;;;;;10.22;100.00;97426.50;5044304;28;20029;-83
2021/10/16 11:43:36;;;;;;;7.40;4.82;;;;;;;10.24;100.00;97418.41;5034090;28;20055;-85
2021/10/16 11:46:03;;;;;;;5.95;4.68;;;;;;;10.27;100.00;97421.72;5048464;28;20550;-84
2021/10/16 11:48:29;;;;;;;6.75;4.28;;;;;;;10.32;100.00;97422.31;5057594;28;20036;-84
2021/10/16 11:50:57;;;;;;;19.35;7.57;;;;;;;10.32;100.00;97416.09;5039001;28;20029;-84
2021/10/16 11:53:28;;;;;;;10.75;6.93;;;;;;;10.31;100.00;97425.91;5033181;28;20037;-82
2021/10/16 11:55:55;;;;;;;7.43;5.75;;;;;;;10.27;100.00;97426.22;5030324;28;20033;-82
2021/10/16 11:58:22;;;;;;;6.85;4.30;;;;;;;10.28;100.00;97430.59;5056496;28;20470;-74